Date,TemperatureHighF,TemperatureAvgF,TemperatureLowF,DewpointHighF,DewpointAvgF,DewpointLowF,HumidityHigh,HumidityAvg,HumidityLow,PressureMaxIn,PressureMinIn,WindSpeedMaxMPH,WindSpeedAvgMPH,GustSpeedMaxMPH,PrecipitationSumIn
2013-1-1,38,35,26,30,25,13,76,68,57,30.05,29.87,8,2,8,0.03
2013-1-2,32,26,21,17,14,11,69,61,52,30.21,30.01,7,1,11,0.24
2013-1-3,32,27,20,21,16,13,78,65,53,30.22,30.09,4,1,6,0.23
2013-1-4,37,33,29,24,22,20,73,66,59,30.12,29.99,8,2,9,0.25
2013-1-5,42,35,30,25,22,18,67,59,49,30.32,30.05,11,2,13,0.19
2013-1-8,34,31,28,27,24,22,81,76,70,30.42,30.40,1,0,1,0.05
2013-1-9,44,36,25,37,30,21,87,80,67,30.42,30.17,4,0,5,0.25
2013-1-10,47,41,33,33,27,22,71,58,44,30.58,30.27,8,1,8,0.24
2013-1-11,42,38,33,39,31,24,89,76,67,30.57,30.13,3,0,3,1.34
2013-1-12,49,44,40,46,41,38,94,91,88,30.20,30.12,2,0,3,0.17
2013-1-13,47,47,47,45,45,45,94,94,94,30.09,30.09,0,0,0,0.00
2013-1-14,54,46,38,43,35,29,79,66,54,30.33,30.14,6,1,7,0.26
2013-1-15,38,36,34,32,30,28,87,80,74,30.38,30.24,4,0,4,0.18
2013-1-16,35,33,31,33,30,28,95,90,80,30.24,29.86,4,0,5,2.45
2013-1-17,42,37,34,33,30,24,93,76,61,30.13,29.95,7,1,9,0.48
2013-1-18,34,28,22,25,15,7,74,60,41,30.48,30.03,8,1,9,0.25
2013-1-19,48,36,23,32,25,14,79,64,50,30.42,29.96,6,1,6,0.36
2013-1-20,51,38,28,36,23,13,85,57,29,30.07,29.75,11,2,11,0.24
2013-1-21,30,27,21,19,14,10,74,59,49,30.11,29.87,5,1,7,0.25
2013-1-22,25,18,12,11,3,-4,65,52,39,30.22,29.86,8,2,8,0.24
2013-1-23,19,13,9,3,-1,-4,66,53,41,30.26,30.17,8,1,8,0.18
2013-1-24,23,18,12,6,2,0,69,50,37,30.43,30.14,8,2,14,0.07
2013-1-25,26,17,11,13,6,-1,79,61,47,30.43,30.08,5,1,5,0.24
2013-1-26,27,19,9,12,8,3,82,63,48,30.40,30.06,9,1,10,0.25
2013-1-27,34,23,10,16,10,3,79,60,41,30.55,30.40,11,1,11,0.23
2013-1-28,34,28,19,31,23,9,92,80,65,30.51,30.04,3,0,3,0.27
2013-1-29,55,42,34,48,37,30,94,86,69,30.17,30.04,4,0,5,0.55
2013-1-30,62,47,38,60,45,36,97,93,90,30.11,29.39,8,0,8,0.77
2013-1-31,61,44,27,60,34,12,98,68,44,29.82,29.10,12,4,13,1.55